Hendersonville, NC

7:07 AM EST on November 21, 2014 (GMT -0500)
Greenville-Spartanburg International | Change Station
CLOSE
Current Station
Airport
Location: Greenville/Spartanburg,
Elevation: 971 ft
Nearby Weather Stations

Elev 971 ft 34.88 °N, 82.22 °W | Updated 14 minutes ago

Partly Cloudy
Partly Cloudy
35 °F
Feels Like 35 °F
N
0
Wind Variable Wind from North

Today
High -- | Low -- °F
--% Chance of Precip.
Yesterday
High -- | Low -- °F
Precip. -- in
7:11 AM 5:20 PM
Waning Crescent, 1% visible
Pressure 30.30 in
Visibility 10.0 miles
Clouds Clear
Dew Point 27 °F
Humidity 72%
Rainfall 0.00 in
Snow Depth Not available.
UV 0 out of 12
Pollen .30 out of 12
Air Quality Not available.
Flu Activity Not available.
METAR KGSP 211153Z 00000KT 10SM CLR 02/M03 A3029 RMK AO2 SLP259 T00171028 10061 20011 53019

More Conditions Fewer Conditions

Pressure 30.30 in
Visibility 10.0 miles
Clouds Clear
Dew Point 27 °F
Humidity 72%
Rainfall 0.00 in
Snow Depth Not available.
UV 0 out of 12
Pollen .30 out of 12
Air Quality Not available.
Flu Activity Not available.
METAR KGSP 211153Z 00000KT 10SM CLR 02/M03 A3029 RMK AO2 SLP259 T00171028 10061 20011 53019

More Conditions Fewer Conditions

10-Day Weather Forecast

Almanac

Astronomy

Nov. 21, 2014 Rise Set
Actual Time
Civil Twilight
Nautical Twilight
Astronomical Twilight
Moon
Length of Visible Light
Length of Day
Tomorrow will be .
, % of the Moon is Illuminated

Today's Extremes

State Highs State Lows

Community

WunderPhotos

Upload Photos

1,772,646 photos uploaded!

WunderBlogs® & News

Nearby

Air Quality

  Air Quality AQ Index Pollutant
Not available.

Snow Depth

Station Depth Elevation

Earthquake Activity

City Distance Mag. Time & Date
Minimum magnitude displayed is 2.5.

Coastal Water Temperatures

Place Temperature

Nearby Weather Stations